Kurashiki, Japan
Current Conditions -  °F | °C
As of 9:00 AM on Monday 22 Dec 2014 (Local Time) from RJOB Reporting Station
Few Clouds Few Clouds  
Wind Chill: 24°   Ceiling: Unl
Heat Index: 34°   Visibility: 6mi
Dew Point: 18°   Wind: 14mph
Humidity: 52%   Direction: 270°W
Pressure: 30.06"   Gusts: NA
Location:  34.61°N, 133.77°E
Report Text: RJOB 220000Z 27012KT 240V300 9999 FEW025 01/M08 Q1018
Loading
Personal Weather Stations






























Interactive Weather Map New forecast layout! Learn more

10-Day Weather Forecast

Advertisements
Track Severe Weather on mobile